Time;durP1;ratioP1;P1;durP2;ratioP2;P2;SDS_P1;SDS_P2;PMS_P1;PMS_P2;Temp;Humidity;BMP_temperature;BMP_pressure;BME280_temperature;BME280_humidity;BME280_pressure;Samples;Min_cycle;Max_cycle;Signal;HPM_P1;HPM_P2
2022/08/27 00:00:30;;;;;;;5.65;1.55;;;16.00;99.90;;;;;;5034520;28;20060;-75
2022/08/27 00:02:56;;;;;;;4.30;1.60;;;16.00;99.90;;;;;;5034826;28;20045;-74
2022/08/27 00:05:22;;;;;;;4.03;1.90;;;16.10;99.90;;;;;;5001975;28;20067;-75
2022/08/27 00:07:48;;;;;;;6.82;1.58;;;16.20;99.90;;;;;;5002181;28;20489;-74
2022/08/27 00:10:21;;;;;;;3.67;1.70;;;16.20;99.90;;;;;;5034583;28;20045;-74
2022/08/27 00:12:47;;;;;;;3.10;1.52;;;16.30;99.90;;;;;;5034742;28;20044;-74
2022/08/27 00:15:14;;;;;;;2.90;1.58;;;16.30;99.90;;;;;;5034511;28;20370;-74
2022/08/27 00:17:41;;;;;;;4.70;2.00;;;16.40;99.90;;;;;;5034459;28;20041;-74
2022/08/27 00:20:07;;;;;;;4.13;1.52;;;16.40;99.90;;;;;;5001907;28;20592;-74
2022/08/27 00:22:33;;;;;;;5.10;1.60;;;16.50;99.90;;;;;;5017791;28;20080;-74
2022/08/27 00:24:59;;;;;;;4.63;1.60;;;16.50;99.90;;;;;;5034173;28;20064;-74
2022/08/27 00:27:25;;;;;;;3.92;1.58;;;16.50;99.90;;;;;;5017530;28;20041;-74
2022/08/27 00:29:51;;;;;;;3.67;1.40;;;16.50;99.90;;;;;;5034698;28;20488;-74
2022/08/27 00:32:17;;;;;;;2.67;1.30;;;16.50;99.90;;;;;;5017436;28;20205;-74
2022/08/27 00:34:43;;;;;;;4.32;1.67;;;16.50;99.90;;;;;;5034537;28;20151;-76
2022/08/27 00:37:09;;;;;;;3.40;1.50;;;16.60;99.90;;;;;;5033994;28;20051;-76
2022/08/27 00:39:35;;;;;;;6.78;1.40;;;16.60;99.90;;;;;;5017861;28;20125;-76
2022/08/27 00:42:03;;;;;;;3.80;1.30;;;16.60;99.90;;;;;;5034088;28;20048;-75
2022/08/27 00:44:30;;;;;;;5.80;1.30;;;16.50;99.90;;;;;;5017407;28;20102;-75
2022/08/27 00:47:01;;;;;;;3.30;1.20;;;16.50;99.90;;;;;;5001800;28;20040;-75
2022/08/27 00:49:33;;;;;;;8.13;1.77;;;16.50;99.90;;;;;;5033803;28;20052;-75
2022/08/27 00:52:13;;;;;;;3.45;1.55;;;16.50;99.90;;;;;;5016838;28;20041;-74
2022/08/27 00:54:40;;;;;;;4.40;1.20;;;16.50;99.90;;;;;;5017148;28;20496;-74
2022/08/27 00:57:05;;;;;;;5.85;1.60;;;16.50;99.90;;;;;;5034028;28;20045;-74
2022/08/27 00:59:31;;;;;;;3.13;1.30;;;16.50;99.90;;;;;;5033352;28;20051;-74
2022/08/27 01:04:45;;;;;;;4.50;1.70;;;16.40;99.90;;;;;;5033225;28;20056;-74
2022/08/27 01:07:13;;;;;;;3.92;1.80;;;16.40;99.90;;;;;;5016652;28;20060;-74
2022/08/27 01:09:41;;;;;;;5.63;1.40;;;16.40;99.90;;;;;;5033576;28;20110;-74
2022/08/27 01:12:08;;;;;;;5.30;1.50;;;16.30;99.90;;;;;;5017027;28;20040;-74
2022/08/27 01:14:34;;;;;;;2.97;1.40;;;16.20;99.90;;;;;;5016828;28;20041;-74
2022/08/27 01:17:01;;;;;;;3.05;1.88;;;16.20;99.90;;;;;;5000442;28;20045;-74
2022/08/27 01:19:29;;;;;;;5.60;1.95;;;16.10;99.90;;;;;;5033066;28;20350;-74
2022/08/27 01:22:25;;;;;;;3.38;1.40;;;16.00;99.90;;;;;;5033038;28;20128;-73
2022/08/27 01:24:54;;;;;;;3.45;1.70;;;15.90;99.90;;;;;;5033135;28;20053;-74
2022/08/27 01:27:24;;;;;;;5.22;1.80;;;15.80;99.90;;;;;;5016612;28;20370;-74
2022/08/27 01:29:50;;;;;;;4.70;2.28;;;15.70;99.90;;;;;;5033297;28;20048;-75
2022/08/27 01:32:29;;;;;;;4.10;1.55;;;15.60;99.90;;;;;;4999930;28;20049;-75
2022/08/27 01:34:56;;;;;;;3.88;1.65;;;15.50;99.90;;;;;;5033511;28;20499;-75
2022/08/27 01:37:22;;;;;;;4.57;1.67;;;15.30;99.90;;;;;;5016359;28;20033;-75
2022/08/27 01:39:48;;;;;;;5.65;1.67;;;15.30;99.90;;;;;;5033496;28;20036;-75
2022/08/27 01:42:16;;;;;;;2.70;1.60;;;15.30;99.90;;;;;;5016360;28;20497;-75
2022/08/27 01:44:51;;;;;;;5.65;1.58;;;15.30;99.90;;;;;;5032384;28;20046;-76
2022/08/27 01:47:19;;;;;;;5.70;1.70;;;15.30;99.90;;;;;;5032983;28;20118;-75
2022/08/27 01:49:45;;;;;;;4.95;1.60;;;15.20;99.90;;;;;;5000872;28;20508;-76
2022/08/27 01:52:12;;;;;;;4.22;1.70;;;15.20;99.90;;;;;;5033155;28;20393;-76
2022/08/27 01:54:38;;;;;;;4.00;1.60;;;15.30;99.90;;;;;;5033122;28;20076;-75
2022/08/27 01:57:03;;;;;;;4.05;1.88;;;15.30;99.90;;;;;;5016487;28;20563;-75
2022/08/27 01:59:29;;;;;;;3.30;1.80;;;15.30;99.90;;;;;;5032948;28;20040;-75
2022/08/27 02:01:56;;;;;;;2.35;1.60;;;15.30;99.90;;;;;;5033048;28;20049;-75
2022/08/27 02:04:22;;;;;;;6.10;1.60;;;15.30;99.90;;;;;;5016056;28;20068;-74
2022/08/27 02:06:48;;;;;;;3.33;1.70;;;15.20;99.90;;;;;;5016422;28;20048;-75
2022/08/27 02:09:14;;;;;;;3.85;1.95;;;15.20;99.90;;;;;;5000661;28;20394;-74
2022/08/27 02:11:40;;;;;;;9.38;1.90;;;15.20;99.90;;;;;;5016254;28;20036;-74
2022/08/27 02:14:05;;;;;;;3.85;1.65;;;15.10;99.90;;;;;;5000414;28;20051;-74
2022/08/27 02:16:31;;;;;;;3.33;1.70;;;15.10;99.90;;;;;;5015902;28;20123;-74
2022/08/27 02:19:00;;;;;;;3.05;1.60;;;15.10;99.90;;;;;;5032843;28;20041;-75
2022/08/27 02:21:25;;;;;;;5.20;1.92;;;15.10;99.90;;;;;;4999704;28;20076;-75
2022/08/27 02:23:53;;;;;;;4.68;1.77;;;15.00;99.90;;;;;;5016300;28;20632;-75
2022/08/27 02:26:19;;;;;;;3.13;1.75;;;15.00;99.90;;;;;;5016175;28;20076;-75
2022/08/27 02:28:45;;;;;;;8.95;1.92;;;15.00;99.90;;;;;;5015966;28;20094;-73
2022/08/27 02:31:11;;;;;;;3.67;1.48;;;15.00;99.90;;;;;;5016533;28;20041;-73
2022/08/27 02:33:36;;;;;;;8.88;1.63;;;15.00;99.90;;;;;;5032493;28;20056;-74
2022/08/27 02:36:03;;;;;;;4.88;1.65;;;15.00;99.90;;;;;;5015892;28;20477;-74
2022/08/27 02:38:28;;;;;;;4.80;1.67;;;15.00;99.90;;;;;;5032670;28;20095;-75
2022/08/27 02:40:54;;;;;;;3.58;1.55;;;15.00;99.90;;;;;;5032578;28;20501;-74
2022/08/27 02:43:20;;;;;;;5.70;1.95;;;15.00;99.90;;;;;;5032379;28;20044;-75
2022/08/27 02:45:46;;;;;;;3.97;1.50;;;14.90;99.90;;;;;;5032595;28;20720;-75
2022/08/27 02:48:11;;;;;;;4.22;1.42;;;14.90;99.90;;;;;;4999711;28;20049;-76
2022/08/27 02:50:37;;;;;;;3.33;1.73;;;14.80;99.90;;;;;;5032454;28;20056;-74
2022/08/27 02:53:05;;;;;;;5.45;1.80;;;14.90;99.90;;;;;;5032543;28;20045;-75
2022/08/27 02:55:31;;;;;;;5.15;1.60;;;14.90;99.90;;;;;;5034001;28;20037;-75
2022/08/27 02:57:57;;;;;;;3.50;1.50;;;14.90;99.90;;;;;;5019637;28;20123;-74
2022/08/27 03:00:27;;;;;;;4.75;1.38;;;14.90;99.90;;;;;;5035586;28;20156;-75
2022/08/27 03:02:53;;;;;;;3.63;1.90;;;15.00;99.90;;;;;;5035631;28;20060;-74
2022/08/27 03:05:19;;;;;;;4.75;1.50;;;15.00;99.90;;;;;;5019357;28;20048;-74
2022/08/27 03:07:45;;;;;;;4.60;2.00;;;15.00;99.90;;;;;;5019131;28;20136;-75
2022/08/27 03:10:14;;;;;;;5.65;1.90;;;15.10;99.90;;;;;;5035760;28;20532;-74
2022/08/27 03:12:40;;;;;;;5.43;1.77;;;15.00;99.90;;;;;;5035573;28;20497;-75
2022/08/27 03:15:09;;;;;;;4.60;1.77;;;15.10;99.90;;;;;;5035794;28;20051;-75
2022/08/27 03:20:20;;;;;;;3.58;1.83;;;15.00;99.90;;;;;;5035284;28;20542;-75
2022/08/27 03:22:46;;;;;;;3.55;2.30;;;15.00;99.90;;;;;;5019198;28;20053;-75
2022/08/27 03:25:12;;;;;;;4.25;1.73;;;15.00;99.90;;;;;;4987032;28;20061;-75
2022/08/27 03:27:38;;;;;;;3.50;2.40;;;15.00;99.90;;;;;;5015304;28;20506;-75
2022/08/27 03:30:12;;;;;;;8.07;2.20;;;15.10;99.90;;;;;;5015574;28;20045;-75
2022/08/27 03:32:38;;;;;;;4.43;2.20;;;15.10;99.90;;;;;;5015465;28;20733;-75
2022/08/27 03:35:04;;;;;;;4.60;2.47;;;15.10;99.90;;;;;;4999419;28;20076;-75
2022/08/27 03:37:30;;;;;;;6.05;2.10;;;15.10;99.90;;;;;;4998862;28;20052;-75
2022/08/27 03:39:56;;;;;;;8.00;2.50;;;15.10;99.90;;;;;;5000773;28;20041;-74
2022/08/27 03:42:22;;;;;;;5.22;2.17;;;15.10;99.90;;;;;;5016277;28;20482;-75
2022/08/27 03:44:48;;;;;;;6.03;2.20;;;15.10;99.90;;;;;;5016397;28;20383;-75
2022/08/27 03:47:14;;;;;;;4.05;2.10;;;15.10;99.90;;;;;;5000721;28;20044;-74
2022/08/27 03:49:39;;;;;;;6.55;2.30;;;15.10;99.90;;;;;;5014587;28;20048;-74
2022/08/27 03:52:06;;;;;;;4.43;2.10;;;15.10;99.90;;;;;;4982772;28;20128;-75
2022/08/27 03:54:34;;;;;;;5.88;2.20;;;15.10;99.90;;;;;;4998154;28;20482;-75
2022/08/27 03:57:00;;;;;;;4.70;2.25;;;15.10;99.90;;;;;;5014360;28;20059;-75
2022/08/27 03:59:26;;;;;;;3.15;2.30;;;15.10;99.90;;;;;;4999019;28;20034;-75
2022/08/27 04:01:52;;;;;;;3.85;2.17;;;15.10;99.90;;;;;;4983687;28;20033;-75
2022/08/27 04:04:18;;;;;;;7.40;2.50;;;15.00;99.90;;;;;;4999690;28;20045;-74
2022/08/27 04:06:44;;;;;;;5.55;2.75;;;14.90;99.90;;;;;;5014096;28;20417;-75
2022/08/27 04:09:09;;;;;;;9.48;2.22;;;14.90;99.90;;;;;;4999324;28;20128;-74
2022/08/27 04:11:35;;;;;;;3.83;2.30;;;14.90;99.90;;;;;;5014447;28;20128;-76
2022/08/27 04:14:05;;;;;;;3.10;1.95;;;14.90;99.90;;;;;;4998389;28;20046;-74
2022/08/27 04:16:34;;;;;;;3.78;2.10;;;14.90;99.90;;;;;;4998554;28;20041;-74
2022/08/27 04:19:01;;;;;;;6.15;2.50;;;14.80;99.90;;;;;;5014448;28;20103;-74
2022/08/27 04:21:28;;;;;;;3.22;2.03;;;14.80;99.90;;;;;;5014117;28;20477;-75
2022/08/27 04:23:55;;;;;;;4.18;2.13;;;14.80;99.90;;;;;;4987686;28;20060;-74
2022/08/27 04:26:22;;;;;;;4.82;2.03;;;14.70;99.90;;;;;;5018316;28;20052;-74
2022/08/27 04:28:48;;;;;;;3.00;1.80;;;14.70;99.90;;;;;;5034378;28;20465;-74
2022/08/27 04:31:14;;;;;;;3.63;2.30;;;14.70;99.90;;;;;;5034355;28;20059;-74
2022/08/27 04:33:40;;;;;;;3.70;2.20;;;14.70;99.90;;;;;;5001250;28;20544;-74
2022/08/27 04:36:08;;;;;;;3.85;2.10;;;14.70;99.90;;;;;;5034655;28;20047;-74
2022/08/27 04:38:34;;;;;;;5.15;2.10;;;14.70;99.90;;;;;;5034233;28;20029;-74
2022/08/27 04:41:18;;;;;;;4.93;2.72;;;14.70;99.90;;;;;;5033924;28;20044;-74
2022/08/27 04:43:45;;;;;;;6.82;2.40;;;14.60;99.90;;;;;;5032803;28;20477;-73
2022/08/27 04:46:11;;;;;;;3.67;2.17;;;14.60;99.90;;;;;;5017126;28;20037;-73
2022/08/27 04:48:37;;;;;;;6.03;1.85;;;14.60;99.90;;;;;;5017157;28;20041;-73
2022/08/27 04:51:02;;;;;;;4.75;2.00;;;14.70;99.90;;;;;;5000493;28;20508;-73
2022/08/27 04:53:28;;;;;;;3.60;1.95;;;14.60;99.90;;;;;;5016729;28;20040;-74
2022/08/27 04:55:55;;;;;;;3.72;1.75;;;14.60;99.90;;;;;;5000589;28;20060;-74
2022/08/27 04:58:22;;;;;;;3.58;1.85;;;14.60;99.90;;;;;;5033597;28;20390;-74
2022/08/27 05:00:51;;;;;;;6.82;2.20;;;14.70;99.90;;;;;;5032806;28;20384;-74
2022/08/27 05:03:22;;;;;;;4.85;1.90;;;14.70;99.90;;;;;;5033642;28;20800;-74
2022/08/27 05:05:48;;;;;;;6.00;2.05;;;14.70;99.90;;;;;;5033490;28;20187;-74
2022/08/27 05:08:14;;;;;;;5.35;1.90;;;14.80;99.90;;;;;;5033133;28;20073;-74
2022/08/27 05:10:50;;;;;;;3.50;1.98;;;14.90;99.90;;;;;;5000100;28;20130;-74
2022/08/27 05:13:22;;;;;;;5.30;2.28;;;15.00;99.90;;;;;;5033054;28;20033;-74
2022/08/27 05:15:49;;;;;;;5.30;1.98;;;15.10;99.90;;;;;;5033086;28;20465;-74
2022/08/27 05:18:14;;;;;;;4.85;2.03;;;15.10;99.90;;;;;;5015853;28;20051;-74
2022/08/27 05:20:46;;;;;;;4.10;2.20;;;15.20;99.90;;;;;;5014939;28;20033;-74
2022/08/27 05:23:13;;;;;;;4.70;2.08;;;15.30;99.90;;;;;;5032064;28;20033;-74
2022/08/27 05:25:44;;;;;;;6.03;2.13;;;15.40;99.90;;;;;;5015690;28;20126;-74
2022/08/27 05:28:12;;;;;;;4.32;2.00;;;15.50;99.90;;;;;;5033287;28;20563;-74
2022/08/27 05:30:40;;;;;;;3.85;1.92;;;15.70;99.90;;;;;;5016117;28;20055;-75
2022/08/27 05:33:07;;;;;;;7.03;2.05;;;15.70;99.90;;;;;;5016263;28;20130;-74
2022/08/27 05:35:46;;;;;;;3.38;1.77;;;15.80;99.90;;;;;;5033015;28;20040;-74
2022/08/27 05:38:12;;;;;;;2.90;1.92;;;16.00;99.90;;;;;;5016593;28;20124;-74
2022/08/27 05:40:39;;;;;;;5.80;2.30;;;16.00;99.90;;;;;;5032676;28;20047;-74
2022/08/27 05:43:05;;;;;;;5.80;2.40;;;16.20;99.90;;;;;;5016111;28;20080;-74
2022/08/27 05:45:33;;;;;;;8.55;2.33;;;16.20;99.90;;;;;;5032341;28;20053;-75
2022/08/27 05:47:59;;;;;;;4.97;2.38;;;16.30;99.90;;;;;;5017024;28;20102;-74
2022/08/27 05:50:25;;;;;;;6.82;2.20;;;16.30;99.90;;;;;;5033015;28;20055;-74
2022/08/27 05:52:52;;;;;;;3.92;2.05;;;16.40;99.90;;;;;;5016032;28;20049;-74
2022/08/27 05:55:18;;;;;;;6.43;2.20;;;16.50;99.90;;;;;;5033304;28;20450;-74
2022/08/27 05:57:44;;;;;;;5.03;2.40;;;16.60;99.90;;;;;;5016098;28;20052;-74
2022/08/27 06:02:54;;;;;;;5.70;2.45;;;17.00;99.90;;;;;;5032357;28;20052;-75
2022/08/27 06:05:20;;;;;;;5.25;2.13;;;17.10;99.90;;;;;;5033021;28;20044;-74
2022/08/27 06:07:45;;;;;;;5.70;2.13;;;17.20;99.90;;;;;;5015859;28;20101;-74
2022/08/27 06:10:11;;;;;;;8.43;2.00;;;17.30;99.90;;;;;;5016188;28;20052;-74
2022/08/27 06:12:37;;;;;;;6.88;1.90;;;17.30;99.90;;;;;;5032500;28;20055;-74
2022/08/27 06:15:04;;;;;;;5.88;1.80;;;17.40;99.90;;;;;;4999465;28;20385;-74
2022/08/27 06:17:30;;;;;;;7.28;2.03;;;17.40;99.90;;;;;;5016280;28;20048;-74
2022/08/27 06:19:56;;;;;;;4.72;2.25;;;17.50;99.90;;;;;;4999482;28;20049;-75
2022/08/27 06:22:22;;;;;;;6.90;1.80;;;17.50;99.90;;;;;;5032707;28;20187;-75
2022/08/27 06:24:48;;;;;;;4.70;1.63;;;17.50;99.90;;;;;;4999149;28;20092;-75
2022/08/27 06:27:16;;;;;;;4.90;1.50;;;17.60;99.90;;;;;;5016242;28;20155;-74
2022/08/27 06:29:42;;;;;;;7.50;1.50;;;17.60;99.90;;;;;;5016810;28;20726;-74
2022/08/27 06:32:08;;;;;;;5.60;1.65;;;17.60;99.90;;;;;;5019486;28;20045;-75
2022/08/27 06:34:35;;;;;;;4.68;1.40;;;17.60;99.90;;;;;;5019529;28;20037;-75
2022/08/27 06:37:01;;;;;;;5.10;1.63;;;17.70;99.90;;;;;;5020083;28;20389;-75
2022/08/27 06:39:27;;;;;;;4.65;1.40;;;17.70;99.90;;;;;;5019883;28;20041;-74
2022/08/27 06:41:52;;;;;;;4.68;1.83;;;17.70;99.90;;;;;;5036178;28;20041;-75
2022/08/27 06:44:19;;;;;;;4.75;1.45;;;17.80;99.90;;;;;;5019845;28;20040;-75
2022/08/27 06:46:44;;;;;;;6.85;1.48;;;17.80;99.90;;;;;;5035732;28;20094;-76
2022/08/27 06:49:11;;;;;;;4.43;1.77;;;17.80;99.90;;;;;;5019586;28;20119;-74
2022/08/27 06:51:39;;;;;;;6.50;2.15;;;17.90;99.90;;;;;;5018876;28;20080;-76
2022/08/27 06:54:11;;;;;;;4.18;1.60;;;17.90;99.90;;;;;;5019583;28;20033;-75
2022/08/27 06:56:37;;;;;;;4.43;1.77;;;18.00;99.90;;;;;;5035620;28;20127;-75
2022/08/27 06:59:06;;;;;;;5.30;1.85;;;18.10;99.90;;;;;;5036253;28;20044;-75
2022/08/27 07:01:37;;;;;;;3.70;1.45;;;18.20;99.90;;;;;;5036427;28;20132;-76
2022/08/27 07:04:07;;;;;;;5.45;1.73;;;18.20;99.90;;;;;;5019839;28;20052;-77
2022/08/27 07:06:33;;;;;;;3.55;1.70;;;18.20;99.90;;;;;;5036564;28;20116;-77
2022/08/27 07:09:01;;;;;;;5.35;1.58;;;18.20;99.90;;;;;;5019236;28;20070;-78
2022/08/27 07:11:28;;;;;;;4.28;1.60;;;18.30;99.90;;;;;;5053680;28;20048;-76
2022/08/27 07:13:54;;;;;;;3.35;1.38;;;18.30;99.90;;;;;;5035430;28;20045;-76
2022/08/27 07:16:22;;;;;;;4.60;1.42;;;18.30;99.90;;;;;;5019423;28;20592;-77
2022/08/27 07:18:49;;;;;;;5.57;1.73;;;18.30;99.90;;;;;;5002814;28;20040;-76
2022/08/27 07:21:15;;;;;;;5.18;1.75;;;18.40;99.90;;;;;;5019011;28;20076;-76
2022/08/27 07:23:42;;;;;;;5.47;2.00;;;18.60;99.90;;;;;;5031344;28;20095;-76
2022/08/27 07:26:09;;;;;;;8.10;1.50;;;18.80;99.90;;;;;;5034720;28;20095;-75
2022/08/27 07:28:37;;;;;;;4.43;1.20;;;19.00;99.90;;;;;;5033802;28;20098;-75
2022/08/27 07:31:04;;;;;;;6.30;1.40;;;19.10;99.90;;;;;;5033960;28;20555;-75
2022/08/27 07:33:30;;;;;;;3.53;1.00;;;19.00;99.90;;;;;;5033941;28;20076;-75
2022/08/27 07:35:55;;;;;;;5.03;1.33;;;19.00;99.90;;;;;;5017447;28;20336;-75
2022/08/27 07:38:21;;;;;;;7.35;1.20;;;18.90;99.90;;;;;;5034170;28;20044;-75
2022/08/27 07:40:47;;;;;;;5.05;1.33;;;18.80;99.90;;;;;;4995148;28;20036;-75
2022/08/27 07:46:00;;;;;;;3.47;1.63;;;19.00;99.90;;;;;;5031373;28;20045;-76
2022/08/27 07:48:26;;;;;;;5.47;1.50;;;19.20;99.90;;;;;;5033638;28;20045;-75
2022/08/27 07:50:53;;;;;;;7.28;1.77;;;19.30;99.90;;;;;;5016598;28;20484;-75
2022/08/27 07:53:19;;;;;;;9.05;1.60;;;19.20;99.90;;;;;;5000579;28;20045;-77
2022/08/27 07:55:45;;;;;;;6.20;1.95;;;19.20;99.90;;;;;;5000332;28;20036;-75
2022/08/27 07:58:12;;;;;;;4.13;1.50;;;19.30;99.90;;;;;;5033277;28;20072;-76
2022/08/27 08:00:41;;;;;;;6.10;1.63;;;19.40;99.90;;;;;;5016027;28;20072;-76
2022/08/27 08:03:07;;;;;;;7.68;2.00;;;19.50;99.90;;;;;;5018077;28;20466;-76
2022/08/27 08:05:33;;;;;;;8.00;1.20;;;19.80;99.90;;;;;;5033251;28;20080;-77
2022/08/27 08:07:59;;;;;;;6.57;1.45;;;19.90;99.90;;;;;;5016711;28;20127;-76
2022/08/27 08:10:26;;;;;;;5.40;1.65;;;19.90;99.90;;;;;;5000101;28;20128;-76
2022/08/27 08:12:51;;;;;;;4.78;1.33;;;19.90;99.90;;;;;;5033049;28;20045;-76
2022/08/27 08:15:18;;;;;;;7.03;1.95;;;19.50;99.90;;;;;;5017253;28;20437;-76
2022/08/27 08:17:45;;;;;;;8.38;2.65;;;19.50;99.90;;;;;;5032898;28;20041;-77
2022/08/27 08:20:12;;;;;;;4.63;1.13;;;19.50;99.90;;;;;;5017136;28;20036;-76
2022/08/27 08:22:38;;;;;;;5.20;1.70;;;19.50;99.90;;;;;;5032185;28;20103;-77
2022/08/27 08:25:05;;;;;;;5.82;1.10;;;19.50;99.90;;;;;;5032974;28;20059;-77
2022/08/27 08:27:31;;;;;;;8.52;1.50;;;19.50;99.90;;;;;;5016649;28;20106;-79
2022/08/27 08:29:58;;;;;;;4.63;1.02;;;19.40;99.90;;;;;;5016453;28;20037;-79
2022/08/27 08:32:24;;;;;;;6.00;1.33;;;19.50;99.90;;;;;;5032895;28;20119;-78
2022/08/27 08:34:50;;;;;;;3.42;1.05;;;19.50;99.90;;;;;;5032758;28;20152;-78
2022/08/27 08:37:16;;;;;;;10.50;2.33;;;19.70;99.90;;;;;;5016723;28;20044;-79
2022/08/27 08:39:42;;;;;;;4.50;1.30;;;19.80;99.90;;;;;;4999413;28;20040;-79
2022/08/27 08:42:24;;;;;;;3.67;1.55;;;19.90;99.90;;;;;;5032855;28;20068;-78
2022/08/27 08:44:52;;;;;;;5.68;1.40;;;20.10;99.90;;;;;;5016123;28;20047;-78
2022/08/27 08:47:21;;;;;;;8.85;1.73;;;20.00;99.90;;;;;;5016698;28;20040;-79
2022/08/27 08:50:15;;;;;;;6.28;1.35;;;20.10;99.90;;;;;;5016045;28;20049;-77
2022/08/27 08:53:20;;;;;;;5.15;1.42;;;20.10;99.90;;;;;;5031931;28;20501;-78
2022/08/27 08:55:55;;;;;;;6.70;1.65;;;20.00;99.90;;;;;;4992916;28;20047;-77
2022/08/27 08:58:30;;;;;;;3.65;1.13;;;20.20;99.90;;;;;;5016315;28;20481;-78
2022/08/27 09:00:58;;;;;;;5.35;1.70;;;20.10;99.90;;;;;;5032393;28;20146;-78
2022/08/27 09:03:26;;;;;;;5.80;1.17;;;20.20;99.90;;;;;;5016162;28;20147;-78
2022/08/27 09:06:01;;;;;;;6.38;1.88;;;20.30;99.90;;;;;;5016182;28;20478;-79
2022/08/27 09:08:36;;;;;;;5.90;1.73;;;20.40;99.90;;;;;;5031998;28;20098;-79
2022/08/27 09:11:02;;;;;;;;;;;20.10;99.90;;;;;;5016267;28;20044;-79
2022/08/27 09:13:46;;;;;;;3.95;1.30;;;19.90;99.90;;;;;;5032120;28;19921;-80
2022/08/27 09:16:12;;;;;;;3.83;1.20;;;19.90;99.90;;;;;;5016526;28;20124;-78
2022/08/27 09:18:40;;;;;;;5.65;1.42;;;19.90;99.90;;;;;;5000108;28;20116;-79
2022/08/27 09:21:33;;;;;;;3.03;1.17;;;19.70;99.90;;;;;;4996459;28;20041;-79
2022/08/27 09:24:06;;;;;;;4.97;1.42;;;19.60;99.90;;;;;;4995902;28;20097;-78
2022/08/27 09:26:37;;;;;;;4.97;1.33;;;19.60;99.90;;;;;;5013060;28;20418;-79
2022/08/27 09:29:15;;;;;;;4.10;1.10;;;19.60;99.90;;;;;;4996488;28;20045;-79
2022/08/27 09:31:59;;;;;;;10.02;1.98;;;19.50;99.90;;;;;;5012689;28;20048;-80
2022/08/27 09:34:33;;;;;;;4.20;1.30;;;19.40;99.90;;;;;;5013084;28;20108;-81
2022/08/27 09:37:09;;;;;;;6.45;1.55;;;19.50;99.90;;;;;;4996441;28;20033;-80
2022/08/27 09:39:37;;;;;;;5.95;1.30;;;19.50;99.90;;;;;;5012673;28;20041;-78
2022/08/27 09:42:05;;;;;;;4.60;1.75;;;19.50;99.90;;;;;;4996324;28;20069;-78
2022/08/27 09:44:31;;;;;;;4.15;2.40;;;19.60;99.90;;;;;;4996073;28;20046;-79
2022/08/27 09:47:01;;;;;;;6.43;1.25;;;19.60;99.90;;;;;;4995733;28;20049;-78
2022/08/27 09:49:27;;;;;;;6.78;1.60;;;19.70;99.90;;;;;;5011647;28;20052;-77
2022/08/27 09:51:54;;;;;;;5.47;1.25;;;19.80;99.90;;;;;;4986289;28;20079;-78
2022/08/27 09:54:45;;;;;;;3.13;1.13;;;19.90;99.90;;;;;;5028864;28;20071;-78
2022/08/27 09:57:30;;;;;;;4.63;1.00;;;20.00;99.90;;;;;;5019375;28;20397;-75
2022/08/27 09:59:56;;;;;;;5.32;1.45;;;20.60;99.90;;;;;;5027840;28;20052;-76
2022/08/27 10:02:24;;;;;;;2.70;1.05;;;20.50;99.90;;;;;;5011873;28;20037;-78
2022/08/27 10:05:01;;;;;;;5.13;1.40;;;20.30;99.90;;;;;;5012493;28;20041;-75
2022/08/27 10:07:52;;;;;;;6.93;1.48;;;20.00;99.90;;;;;;5015630;28;20083;-75
2022/08/27 10:10:27;;;;;;;5.85;1.45;;;19.70;99.90;;;;;;5032304;28;20052;-73
2022/08/27 10:13:13;;;;;;;6.40;1.27;;;19.60;99.90;;;;;;5015061;28;20042;-76
2022/08/27 10:15:50;;;;;;;4.22;1.40;;;19.60;99.90;;;;;;5032238;28;20386;-76
2022/08/27 10:18:19;;;;;;;6.18;1.40;;;19.60;99.90;;;;;;5022382;28;20127;-76
2022/08/27 10:21:15;;;;;;;6.47;1.42;;;19.70;99.90;;;;;;4998460;28;20570;-76
2022/08/27 10:24:18;;;;;;;7.43;1.55;;;19.80;99.90;;;;;;4998839;28;20072;-77
2022/08/27 10:27:04;;;;;;;6.30;1.50;;;19.80;99.90;;;;;;4998400;28;20037;-76
2022/08/27 10:29:55;;;;;;;6.05;1.60;;;19.80;99.90;;;;;;5015060;28;20050;-77
2022/08/27 10:32:51;;;;;;;5.00;1.30;;;19.70;99.90;;;;;;4999453;28;20099;-77
2022/08/27 10:35:22;;;;;;;11.43;1.77;;;19.70;99.90;;;;;;5015548;28;20065;-77
2022/08/27 10:38:23;;;;;;;4.35;1.17;;;19.90;99.90;;;;;;4998040;28;20470;-78
2022/08/27 10:41:10;;;;;;;6.45;1.42;;;20.00;99.90;;;;;;4935907;29;20444;-77
2022/08/27 10:43:47;;;;;;;4.00;1.58;;;20.10;99.90;;;;;;4995108;28;20053;-77
2022/08/27 10:46:51;;;;;;;3.25;1.20;;;20.20;99.90;;;;;;4999587;28;20072;-78
2022/08/27 10:49:50;;;;;;;3.47;1.08;;;20.20;99.90;;;;;;5015282;28;20045;-78
2022/08/27 10:52:40;;;;;;;4.82;1.10;;;21.00;99.90;;;;;;5015265;28;20041;-78
2022/08/27 10:55:18;;;;;;;7.10;1.55;;;20.90;99.90;;;;;;5015095;28;20045;-77
2022/08/27 10:58:26;;;;;;;5.47;1.40;;;20.40;99.90;;;;;;4998575;28;20083;-79
2022/08/27 11:01:11;;;;;;;5.47;1.05;;;20.30;99.90;;;;;;4998041;28;20049;-80
2022/08/27 11:03:43;;;;;;;2.35;1.10;;;20.10;99.90;;;;;;4998494;28;20045;-77
2022/08/27 11:06:26;;;;;;;4.20;0.85;;;20.10;99.90;;;;;;4998532;28;20037;-78
2022/08/27 11:09:35;;;;;;;6.35;1.30;;;20.10;99.90;;;;;;4997373;28;20120;-80
2022/08/27 11:12:08;;;;;;;5.72;1.00;;;20.30;99.90;;;;;;4997870;28;20088;-78
2022/08/27 11:15:11;;;;;;;4.03;1.15;;;20.30;99.90;;;;;;4999037;28;20128;-80
2022/08/27 11:17:55;;;;;;;5.90;1.20;;;20.30;99.90;;;;;;5006642;28;20400;-78
2022/08/27 11:20:33;;;;;;;3.25;1.00;;;20.30;99.90;;;;;;5035329;28;20037;-78
2022/08/27 11:23:04;;;;;;;5.03;1.52;;;20.30;99.90;;;;;;5018578;28;20041;-82
2022/08/27 11:25:36;;;;;;;2.63;0.95;;;21.10;99.90;;;;;;5034713;28;20424;-79
2022/08/27 11:28:04;;;;;;;4.25;1.00;;;21.60;99.90;;;;;;5018568;28;20052;-79
2022/08/27 11:30:52;;;;;;;3.05;1.20;;;22.00;99.90;;;;;;5018366;28;20057;-79
2022/08/27 11:33:39;;;;;;;3.53;1.13;;;22.20;99.90;;;;;;5018661;28;20465;-80
2022/08/27 11:36:14;;;;;;;5.15;1.30;;;22.60;99.90;;;;;;5019078;28;20088;-80
2022/08/27 11:38:55;;;;;;;3.53;1.10;;;22.30;99.90;;;;;;5018266;28;20071;-78
2022/08/27 11:41:37;;;;;;;7.72;1.60;;;21.90;99.90;;;;;;5018558;28;20120;-80
2022/08/27 11:44:03;;;;;;;6.15;1.10;;;22.20;99.90;;;;;;5017741;28;20053;-78
2022/08/27 11:46:43;;;;;;;4.85;1.27;;;22.90;99.90;;;;;;5034620;28;20041;-78
2022/08/27 11:49:09;;;;;;;4.35;1.10;;;22.20;99.90;;;;;;5034232;28;20080;-77
2022/08/27 11:51:38;;;;;;;5.18;0.88;;;22.00;99.90;;;;;;5016594;28;20489;-79
2022/08/27 11:54:06;;;;;;;4.95;1.17;;;22.20;99.90;;;;;;5033375;28;20041;-78
2022/08/27 11:56:34;;;;;;;5.03;1.05;;;21.80;99.90;;;;;;5017302;28;20132;-77
2022/08/27 11:59:20;;;;;;;5.53;1.20;;;21.70;99.90;;;;;;5016893;28;20041;-77
2022/08/27 12:01:47;;;;;;;3.75;1.00;;;21.10;99.90;;;;;;5016371;28;20045;-80
2022/08/27 12:04:33;;;;;;;3.60;1.08;;;21.20;99.90;;;;;;5001562;28;20041;-78
2022/08/27 12:07:16;;;;;;;3.78;1.00;;;21.20;99.90;;;;;;5033668;28;20037;-78
2022/08/27 12:10:02;;;;;;;4.47;1.05;;;21.30;99.90;;;;;;5033842;28;20098;-78
2022/08/27 12:13:07;;;;;;;6.65;1.08;;;21.40;99.90;;;;;;5016806;28;20056;-79
2022/08/27 12:15:53;;;;;;;3.88;1.52;;;21.40;99.90;;;;;;5017714;28;20048;-78
2022/08/27 12:18:37;;;;;;;5.28;1.20;;;21.80;99.90;;;;;;5037159;28;20049;-78
2022/08/27 12:21:09;;;;;;;3.47;1.05;;;22.00;99.90;;;;;;5038877;28;20044;-79
2022/08/27 12:23:48;;;;;;;3.58;1.13;;;21.60;99.90;;;;;;5037377;28;20079;-77
2022/08/27 12:26:41;;;;;;;3.88;1.00;;;21.70;99.90;;;;;;5019014;28;20080;-78
2022/08/27 12:29:48;;;;;;;5.68;1.20;;;21.60;99.90;;;;;;5032717;28;20322;-78
2022/08/27 12:32:25;;;;;;;4.10;1.05;;;21.40;99.90;;;;;;5023009;28;20124;-78
2022/08/27 12:35:18;;;;;;;5.57;1.30;;;21.20;99.90;;;;;;5034070;28;20044;-76
2022/08/27 12:38:05;;;;;;;4.25;1.10;;;21.60;99.90;;;;;;5022725;28;20064;-79
2022/08/27 12:41:07;;;;;;;4.63;1.30;;;21.80;99.90;;;;;;5036137;28;20630;-75
2022/08/27 12:43:37;;;;;;;2.13;1.00;;;21.80;99.90;;;;;;5037679;28;20060;-80
2022/08/27 12:46:14;;;;;;;5.07;1.27;;;22.00;99.90;;;;;;5020671;28;20049;-78
2022/08/27 12:48:58;;;;;;;3.67;1.05;;;22.40;99.90;;;;;;5033538;28;20041;-79
2022/08/27 12:51:33;;;;;;;4.10;1.10;;;22.80;99.90;;;;;;5016394;28;20045;-78
2022/08/27 12:54:11;;;;;;;7.15;1.20;;;22.80;99.90;;;;;;5016611;28;20405;-78
2022/08/27 12:57:07;;;;;;;5.82;1.17;;;22.50;99.90;;;;;;5016596;28;20397;-80
2022/08/27 13:00:11;;;;;;;3.28;0.80;;;22.10;99.90;;;;;;5032467;28;20083;-78
2022/08/27 13:02:46;;;;;;;2.30;0.93;;;22.40;99.90;;;;;;5015462;28;20041;-78
2022/08/27 13:05:16;;;;;;;2.60;0.75;;;22.90;99.90;;;;;;5032703;28;20053;-79
2022/08/27 13:07:45;;;;;;;4.55;1.30;;;23.40;99.90;;;;;;5032221;28;20040;-79
2022/08/27 13:10:30;;;;;;;3.30;1.10;;;23.60;99.90;;;;;;5031863;28;20041;-79
2022/08/27 13:13:03;;;;;;;4.85;1.02;;;23.90;99.90;;;;;;5015746;28;20080;-80
2022/08/27 13:15:29;;;;;;;2.75;1.15;;;23.40;99.90;;;;;;5032466;28;20041;-82
2022/08/27 13:17:55;;;;;;;3.25;1.00;;;22.60;99.90;;;;;;4999995;28;20392;-81
2022/08/27 13:20:25;;;;;;;4.18;1.13;;;22.50;99.90;;;;;;4991466;28;20069;-81